sensor_id;sensor_type;location;lat;lon;timestamp;P1;durP1;ratioP1;P2;durP2;ratioP2
21458;SDS011;10891;49.350;19.386;2023-08-31T00:02:11;3.97;;;2.80;;
21458;SDS011;10891;49.350;19.386;2023-08-31T00:04:38;4.93;;;2.58;;
21458;SDS011;10891;49.350;19.386;2023-08-31T00:07:05;5.05;;;2.80;;
21458;SDS011;10891;49.350;19.386;2023-08-31T00:09:34;2.90;;;2.50;;
21458;SDS011;10891;49.350;19.386;2023-08-31T00:12:02;5.88;;;3.08;;
21458;SDS011;10891;49.350;19.386;2023-08-31T00:14:29;7.68;;;2.70;;
21458;SDS011;10891;49.350;19.386;2023-08-31T00:16:57;2.75;;;2.42;;
21458;SDS011;10891;49.350;19.386;2023-08-31T00:19:24;3.35;;;2.40;;
21458;SDS011;10891;49.350;19.386;2023-08-31T00:21:52;4.97;;;2.70;;
21458;SDS011;10891;49.350;19.386;2023-08-31T00:24:19;4.32;;;2.05;;
21458;SDS011;10891;49.350;19.386;2023-08-31T00:26:58;5.40;;;2.28;;
21458;SDS011;10891;49.350;19.386;2023-08-31T00:29:26;4.68;;;2.38;;
21458;SDS011;10891;49.350;19.386;2023-08-31T00:31:54;3.65;;;2.30;;
21458;SDS011;10891;49.350;19.386;2023-08-31T00:34:22;2.83;;;1.75;;
21458;SDS011;10891;49.350;19.386;2023-08-31T00:36:49;2.30;;;1.48;;
21458;SDS011;10891;49.350;19.386;2023-08-31T00:39:16;1.80;;;1.38;;
21458;SDS011;10891;49.350;19.386;2023-08-31T00:41:46;2.28;;;1.60;;
21458;SDS011;10891;49.350;19.386;2023-08-31T00:44:14;2.33;;;1.30;;
21458;SDS011;10891;49.350;19.386;2023-08-31T00:46:42;1.88;;;1.35;;
21458;SDS011;10891;49.350;19.386;2023-08-31T00:49:09;4.80;;;1.60;;
21458;SDS011;10891;49.350;19.386;2023-08-31T00:51:37;4.90;;;2.65;;
21458;SDS011;10891;49.350;19.386;2023-08-31T00:54:04;12.82;;;4.78;;
21458;SDS011;10891;49.350;19.386;2023-08-31T00:56:31;30.90;;;8.80;;
21458;SDS011;10891;49.350;19.386;2023-08-31T00:58:58;15.55;;;5.20;;
21458;SDS011;10891;49.350;19.386;2023-08-31T01:01:30;12.85;;;4.85;;
21458;SDS011;10891;49.350;19.386;2023-08-31T01:04:03;17.48;;;6.13;;
21458;SDS011;10891;49.350;19.386;2023-08-31T01:06:36;7.85;;;3.80;;
21458;SDS011;10891;49.350;19.386;2023-08-31T01:09:07;11.77;;;5.13;;
21458;SDS011;10891;49.350;19.386;2023-08-31T01:11:42;15.25;;;6.22;;
21458;SDS011;10891;49.350;19.386;2023-08-31T01:14:12;15.35;;;6.60;;
21458;SDS011;10891;49.350;19.386;2023-08-31T01:16:45;10.43;;;4.80;;
21458;SDS011;10891;49.350;19.386;2023-08-31T01:19:16;7.15;;;3.30;;
21458;SDS011;10891;49.350;19.386;2023-08-31T01:21:45;6.30;;;3.22;;
21458;SDS011;10891;49.350;19.386;2023-08-31T01:24:16;5.00;;;3.08;;
21458;SDS011;10891;49.350;19.386;2023-08-31T01:26:43;6.38;;;2.55;;
21458;SDS011;10891;49.350;19.386;2023-08-31T01:29:12;3.65;;;2.25;;
21458;SDS011;10891;49.350;19.386;2023-08-31T01:31:42;5.30;;;2.45;;
21458;SDS011;10891;49.350;19.386;2023-08-31T01:34:10;3.30;;;2.53;;
21458;SDS011;10891;49.350;19.386;2023-08-31T01:36:39;4.03;;;2.17;;
21458;SDS011;10891;49.350;19.386;2023-08-31T01:39:10;5.82;;;2.58;;
21458;SDS011;10891;49.350;19.386;2023-08-31T01:41:41;2.75;;;2.15;;
21458;SDS011;10891;49.350;19.386;2023-08-31T01:44:11;3.25;;;2.47;;
21458;SDS011;10891;49.350;19.386;2023-08-31T01:46:40;3.83;;;2.05;;
21458;SDS011;10891;49.350;19.386;2023-08-31T01:49:09;10.57;;;1.92;;
21458;SDS011;10891;49.350;19.386;2023-08-31T01:51:37;18.52;;;2.38;;
21458;SDS011;10891;49.350;19.386;2023-08-31T01:54:04;2.33;;;1.90;;
21458;SDS011;10891;49.350;19.386;2023-08-31T01:56:31;4.15;;;1.90;;
21458;SDS011;10891;49.350;19.386;2023-08-31T01:58:59;2.10;;;1.48;;
21458;SDS011;10891;49.350;19.386;2023-08-31T02:01:27;2.22;;;1.83;;
21458;SDS011;10891;49.350;19.386;2023-08-31T02:03:55;2.20;;;1.70;;
21458;SDS011;10891;49.350;19.386;2023-08-31T02:06:22;3.28;;;2.10;;
21458;SDS011;10891;49.350;19.386;2023-08-31T02:08:49;3.78;;;2.03;;
21458;SDS011;10891;49.350;19.386;2023-08-31T02:11:17;2.88;;;2.25;;
21458;SDS011;10891;49.350;19.386;2023-08-31T02:13:44;3.78;;;2.55;;
21458;SDS011;10891;49.350;19.386;2023-08-31T02:16:12;3.08;;;2.33;;
21458;SDS011;10891;49.350;19.386;2023-08-31T02:18:39;2.60;;;2.10;;
21458;SDS011;10891;49.350;19.386;2023-08-31T02:21:07;2.22;;;1.65;;
21458;SDS011;10891;49.350;19.386;2023-08-31T02:23:34;2.05;;;1.73;;
21458;SDS011;10891;49.350;19.386;2023-08-31T02:26:01;3.38;;;2.13;;
21458;SDS011;10891;49.350;19.386;2023-08-31T02:28:28;3.70;;;2.10;;
21458;SDS011;10891;49.350;19.386;2023-08-31T02:30:58;2.85;;;2.55;;
21458;SDS011;10891;49.350;19.386;2023-08-31T02:33:27;3.05;;;2.58;;
21458;SDS011;10891;49.350;19.386;2023-08-31T02:35:54;3.88;;;2.35;;
21458;SDS011;10891;49.350;19.386;2023-08-31T02:38:22;3.17;;;2.60;;
21458;SDS011;10891;49.350;19.386;2023-08-31T02:40:49;2.72;;;2.38;;
21458;SDS011;10891;49.350;19.386;2023-08-31T02:43:16;5.22;;;3.05;;
21458;SDS011;10891;49.350;19.386;2023-08-31T02:45:43;3.85;;;3.03;;
21458;SDS011;10891;49.350;19.386;2023-08-31T02:48:11;3.97;;;2.60;;
21458;SDS011;10891;49.350;19.386;2023-08-31T02:50:39;3.80;;;2.70;;
21458;SDS011;10891;49.350;19.386;2023-08-31T02:53:06;3.33;;;2.90;;
21458;SDS011;10891;49.350;19.386;2023-08-31T02:55:34;4.88;;;3.80;;
21458;SDS011;10891;49.350;19.386;2023-08-31T02:58:01;4.25;;;3.00;;
21458;SDS011;10891;49.350;19.386;2023-08-31T03:00:28;4.53;;;2.25;;
21458;SDS011;10891;49.350;19.386;2023-08-31T03:02:55;5.45;;;2.70;;
21458;SDS011;10891;49.350;19.386;2023-08-31T03:05:23;3.58;;;2.60;;
21458;SDS011;10891;49.350;19.386;2023-08-31T03:07:51;3.70;;;2.90;;
21458;SDS011;10891;49.350;19.386;2023-08-31T03:10:20;3.30;;;2.97;;
21458;SDS011;10891;49.350;19.386;2023-08-31T03:12:47;5.18;;;3.38;;
21458;SDS011;10891;49.350;19.386;2023-08-31T03:15:15;2.85;;;2.55;;
21458;SDS011;10891;49.350;19.386;2023-08-31T03:17:42;5.95;;;3.00;;
21458;SDS011;10891;49.350;19.386;2023-08-31T03:20:09;3.67;;;2.90;;
21458;SDS011;10891;49.350;19.386;2023-08-31T03:22:37;8.93;;;2.92;;
21458;SDS011;10891;49.350;19.386;2023-08-31T03:25:06;5.15;;;3.30;;
21458;SDS011;10891;49.350;19.386;2023-08-31T03:27:33;5.45;;;3.30;;
21458;SDS011;10891;49.350;19.386;2023-08-31T03:30:00;4.20;;;3.28;;
21458;SDS011;10891;49.350;19.386;2023-08-31T03:32:28;3.60;;;2.65;;
21458;SDS011;10891;49.350;19.386;2023-08-31T03:34:56;4.57;;;2.72;;
21458;SDS011;10891;49.350;19.386;2023-08-31T03:37:23;4.43;;;2.97;;
21458;SDS011;10891;49.350;19.386;2023-08-31T03:39:50;6.97;;;2.92;;
21458;SDS011;10891;49.350;19.386;2023-08-31T03:42:18;3.72;;;2.80;;
21458;SDS011;10891;49.350;19.386;2023-08-31T03:44:46;4.70;;;3.00;;
21458;SDS011;10891;49.350;19.386;2023-08-31T03:47:13;4.57;;;3.00;;
21458;SDS011;10891;49.350;19.386;2023-08-31T03:49:40;4.88;;;2.90;;
21458;SDS011;10891;49.350;19.386;2023-08-31T03:52:07;8.13;;;2.97;;
21458;SDS011;10891;49.350;19.386;2023-08-31T03:54:35;6.25;;;3.30;;
21458;SDS011;10891;49.350;19.386;2023-08-31T03:57:02;3.78;;;3.20;;
21458;SDS011;10891;49.350;19.386;2023-08-31T03:59:31;5.70;;;4.60;;
21458;SDS011;10891;49.350;19.386;2023-08-31T04:01:58;6.82;;;4.43;;
21458;SDS011;10891;49.350;19.386;2023-08-31T04:04:25;6.35;;;4.55;;
21458;SDS011;10891;49.350;19.386;2023-08-31T04:06:52;6.57;;;3.88;;
21458;SDS011;10891;49.350;19.386;2023-08-31T04:09:20;5.68;;;4.63;;
21458;SDS011;10891;49.350;19.386;2023-08-31T04:11:48;5.75;;;4.38;;
21458;SDS011;10891;49.350;19.386;2023-08-31T04:14:15;6.90;;;4.10;;
21458;SDS011;10891;49.350;19.386;2023-08-31T04:16:44;5.80;;;4.15;;
21458;SDS011;10891;49.350;19.386;2023-08-31T04:19:14;7.40;;;4.88;;
21458;SDS011;10891;49.350;19.386;2023-08-31T04:21:41;7.90;;;5.03;;
21458;SDS011;10891;49.350;19.386;2023-08-31T04:24:09;11.65;;;7.05;;
21458;SDS011;10891;49.350;19.386;2023-08-31T04:26:36;7.50;;;5.18;;
21458;SDS011;10891;49.350;19.386;2023-08-31T04:29:03;7.25;;;5.47;;
21458;SDS011;10891;49.350;19.386;2023-08-31T04:31:31;9.30;;;6.75;;
21458;SDS011;10891;49.350;19.386;2023-08-31T04:33:59;13.13;;;7.28;;
21458;SDS011;10891;49.350;19.386;2023-08-31T04:36:27;9.95;;;7.50;;
21458;SDS011;10891;49.350;19.386;2023-08-31T04:38:54;10.70;;;7.68;;
21458;SDS011;10891;49.350;19.386;2023-08-31T04:41:21;10.95;;;8.50;;
21458;SDS011;10891;49.350;19.386;2023-08-31T04:43:49;13.23;;;9.73;;
21458;SDS011;10891;49.350;19.386;2023-08-31T04:46:16;13.07;;;9.82;;
21458;SDS011;10891;49.350;19.386;2023-08-31T04:48:44;12.65;;;9.27;;
21458;SDS011;10891;49.350;19.386;2023-08-31T04:53:54;13.95;;;9.07;;
21458;SDS011;10891;49.350;19.386;2023-08-31T04:56:21;10.65;;;6.85;;
21458;SDS011;10891;49.350;19.386;2023-08-31T04:58:49;10.38;;;6.63;;
21458;SDS011;10891;49.350;19.386;2023-08-31T05:01:16;8.80;;;6.07;;
21458;SDS011;10891;49.350;19.386;2023-08-31T05:03:43;11.55;;;7.07;;
21458;SDS011;10891;49.350;19.386;2023-08-31T05:06:10;11.25;;;6.88;;
21458;SDS011;10891;49.350;19.386;2023-08-31T05:08:38;8.80;;;6.40;;
21458;SDS011;10891;49.350;19.386;2023-08-31T05:11:07;17.25;;;7.28;;
21458;SDS011;10891;49.350;19.386;2023-08-31T05:13:34;10.70;;;7.00;;
21458;SDS011;10891;49.350;19.386;2023-08-31T05:16:02;13.25;;;7.85;;
21458;SDS011;10891;49.350;19.386;2023-08-31T05:18:30;13.80;;;8.85;;
21458;SDS011;10891;49.350;19.386;2023-08-31T05:20:57;13.82;;;8.65;;
21458;SDS011;10891;49.350;19.386;2023-08-31T05:23:24;12.27;;;7.85;;
21458;SDS011;10891;49.350;19.386;2023-08-31T05:25:51;13.95;;;8.75;;
21458;SDS011;10891;49.350;19.386;2023-08-31T05:28:23;10.23;;;6.30;;
21458;SDS011;10891;49.350;19.386;2023-08-31T05:30:50;10.35;;;6.50;;
21458;SDS011;10891;49.350;19.386;2023-08-31T05:33:18;9.82;;;6.18;;
21458;SDS011;10891;49.350;19.386;2023-08-31T05:35:47;7.63;;;5.35;;
21458;SDS011;10891;49.350;19.386;2023-08-31T05:38:14;8.73;;;6.13;;
21458;SDS011;10891;49.350;19.386;2023-08-31T05:40:41;7.43;;;5.38;;
21458;SDS011;10891;49.350;19.386;2023-08-31T05:43:10;9.05;;;6.38;;
21458;SDS011;10891;49.350;19.386;2023-08-31T05:45:40;10.13;;;7.07;;
21458;SDS011;10891;49.350;19.386;2023-08-31T05:48:07;11.15;;;6.85;;
21458;SDS011;10891;49.350;19.386;2023-08-31T05:50:34;11.40;;;7.35;;
21458;SDS011;10891;49.350;19.386;2023-08-31T05:53:03;8.43;;;6.05;;
21458;SDS011;10891;49.350;19.386;2023-08-31T05:55:30;9.63;;;6.35;;
21458;SDS011;10891;49.350;19.386;2023-08-31T05:57:58;9.43;;;6.38;;
21458;SDS011;10891;49.350;19.386;2023-08-31T06:00:27;10.32;;;6.85;;
21458;SDS011;10891;49.350;19.386;2023-08-31T06:02:56;11.48;;;7.75;;
21458;SDS011;10891;49.350;19.386;2023-08-31T06:05:23;8.88;;;5.93;;
21458;SDS011;10891;49.350;19.386;2023-08-31T06:07:52;10.05;;;7.05;;
21458;SDS011;10891;49.350;19.386;2023-08-31T06:10:19;12.15;;;7.40;;
21458;SDS011;10891;49.350;19.386;2023-08-31T06:12:48;13.85;;;9.32;;
21458;SDS011;10891;49.350;19.386;2023-08-31T06:15:17;13.38;;;8.43;;
21458;SDS011;10891;49.350;19.386;2023-08-31T06:17:44;6.20;;;4.97;;
21458;SDS011;10891;49.350;19.386;2023-08-31T06:20:13;6.85;;;5.20;;
21458;SDS011;10891;49.350;19.386;2023-08-31T06:22:40;7.70;;;3.90;;
21458;SDS011;10891;49.350;19.386;2023-08-31T06:25:08;6.43;;;3.90;;
21458;SDS011;10891;49.350;19.386;2023-08-31T06:27:36;6.90;;;3.97;;
21458;SDS011;10891;49.350;19.386;2023-08-31T06:30:03;4.70;;;3.80;;
21458;SDS011;10891;49.350;19.386;2023-08-31T06:32:32;4.85;;;4.00;;
21458;SDS011;10891;49.350;19.386;2023-08-31T06:34:59;6.10;;;4.35;;
21458;SDS011;10891;49.350;19.386;2023-08-31T06:37:28;5.15;;;3.75;;
21458;SDS011;10891;49.350;19.386;2023-08-31T06:39:55;6.18;;;4.60;;
21458;SDS011;10891;49.350;19.386;2023-08-31T06:42:22;5.75;;;4.20;;
21458;SDS011;10891;49.350;19.386;2023-08-31T06:44:49;5.40;;;4.20;;
21458;SDS011;10891;49.350;19.386;2023-08-31T06:47:17;7.32;;;4.47;;
21458;SDS011;10891;49.350;19.386;2023-08-31T06:49:45;5.22;;;3.60;;
21458;SDS011;10891;49.350;19.386;2023-08-31T06:52:12;5.18;;;3.83;;
21458;SDS011;10891;49.350;19.386;2023-08-31T06:54:42;5.15;;;3.55;;
21458;SDS011;10891;49.350;19.386;2023-08-31T06:57:09;8.18;;;3.80;;
21458;SDS011;10891;49.350;19.386;2023-08-31T06:59:36;4.90;;;3.45;;
21458;SDS011;10891;49.350;19.386;2023-08-31T07:02:04;6.75;;;3.42;;
21458;SDS011;10891;49.350;19.386;2023-08-31T07:04:32;5.43;;;3.60;;
21458;SDS011;10891;49.350;19.386;2023-08-31T07:06:59;4.22;;;3.00;;
21458;SDS011;10891;49.350;19.386;2023-08-31T07:09:27;4.45;;;2.42;;
21458;SDS011;10891;49.350;19.386;2023-08-31T07:11:56;5.15;;;2.78;;
21458;SDS011;10891;49.350;19.386;2023-08-31T07:14:24;4.78;;;2.47;;
21458;SDS011;10891;49.350;19.386;2023-08-31T07:16:52;2.63;;;2.40;;
21458;SDS011;10891;49.350;19.386;2023-08-31T07:19:19;2.75;;;2.00;;
21458;SDS011;10891;49.350;19.386;2023-08-31T07:21:46;2.33;;;1.60;;
21458;SDS011;10891;49.350;19.386;2023-08-31T07:24:13;2.83;;;2.10;;
21458;SDS011;10891;49.350;19.386;2023-08-31T07:26:40;1.48;;;1.38;;
21458;SDS011;10891;49.350;19.386;2023-08-31T07:29:09;1.60;;;1.35;;
21458;SDS011;10891;49.350;19.386;2023-08-31T07:31:36;2.35;;;1.58;;
21458;SDS011;10891;49.350;19.386;2023-08-31T07:34:04;1.70;;;1.52;;
21458;SDS011;10891;49.350;19.386;2023-08-31T07:36:32;1.88;;;1.65;;
21458;SDS011;10891;49.350;19.386;2023-08-31T07:39:00;3.15;;;1.85;;
21458;SDS011;10891;49.350;19.386;2023-08-31T07:41:28;4.97;;;2.80;;
21458;SDS011;10891;49.350;19.386;2023-08-31T07:43:56;5.18;;;3.03;;
21458;SDS011;10891;49.350;19.386;2023-08-31T07:46:25;2.97;;;2.38;;
21458;SDS011;10891;49.350;19.386;2023-08-31T07:48:52;3.40;;;2.42;;
21458;SDS011;10891;49.350;19.386;2023-08-31T07:51:20;3.25;;;2.40;;
21458;SDS011;10891;49.350;19.386;2023-08-31T07:53:48;4.47;;;2.65;;
21458;SDS011;10891;49.350;19.386;2023-08-31T07:56:15;2.33;;;2.00;;
21458;SDS011;10891;49.350;19.386;2023-08-31T07:58:42;3.80;;;2.15;;
21458;SDS011;10891;49.350;19.386;2023-08-31T08:01:10;3.78;;;2.20;;
21458;SDS011;10891;49.350;19.386;2023-08-31T08:03:38;4.43;;;2.45;;
21458;SDS011;10891;49.350;19.386;2023-08-31T08:06:05;3.08;;;2.45;;
21458;SDS011;10891;49.350;19.386;2023-08-31T08:08:33;3.63;;;2.15;;
21458;SDS011;10891;49.350;19.386;2023-08-31T08:11:01;3.15;;;2.40;;
21458;SDS011;10891;49.350;19.386;2023-08-31T08:13:28;2.05;;;1.73;;
21458;SDS011;10891;49.350;19.386;2023-08-31T08:15:56;2.75;;;2.20;;
21458;SDS011;10891;49.350;19.386;2023-08-31T08:18:23;5.88;;;2.63;;
21458;SDS011;10891;49.350;19.386;2023-08-31T08:20:52;5.70;;;3.20;;
21458;SDS011;10891;49.350;19.386;2023-08-31T08:23:20;5.22;;;2.85;;
21458;SDS011;10891;49.350;19.386;2023-08-31T08:25:48;5.82;;;2.13;;
21458;SDS011;10891;49.350;19.386;2023-08-31T08:28:15;2.38;;;1.70;;
21458;SDS011;10891;49.350;19.386;2023-08-31T08:30:42;3.22;;;2.30;;
21458;SDS011;10891;49.350;19.386;2023-08-31T08:33:10;2.97;;;2.33;;
21458;SDS011;10891;49.350;19.386;2023-08-31T08:35:37;2.33;;;1.80;;
21458;SDS011;10891;49.350;19.386;2023-08-31T08:38:05;3.15;;;2.10;;
21458;SDS011;10891;49.350;19.386;2023-08-31T08:40:33;2.78;;;2.33;;
21458;SDS011;10891;49.350;19.386;2023-08-31T08:43:01;5.30;;;2.25;;
21458;SDS011;10891;49.350;19.386;2023-08-31T08:45:30;3.33;;;2.20;;
21458;SDS011;10891;49.350;19.386;2023-08-31T08:47:58;3.40;;;2.60;;
21458;SDS011;10891;49.350;19.386;2023-08-31T08:50:25;3.53;;;2.17;;
21458;SDS011;10891;49.350;19.386;2023-08-31T08:52:54;3.22;;;2.40;;
21458;SDS011;10891;49.350;19.386;2023-08-31T08:55:22;3.25;;;2.65;;
21458;SDS011;10891;49.350;19.386;2023-08-31T08:57:49;3.75;;;3.15;;
21458;SDS011;10891;49.350;19.386;2023-08-31T09:00:16;3.47;;;2.42;;
21458;SDS011;10891;49.350;19.386;2023-08-31T09:02:44;4.97;;;2.50;;
21458;SDS011;10891;49.350;19.386;2023-08-31T09:05:11;3.20;;;2.60;;
21458;SDS011;10891;49.350;19.386;2023-08-31T09:07:38;4.28;;;2.50;;
21458;SDS011;10891;49.350;19.386;2023-08-31T09:10:30;3.97;;;2.70;;
21458;SDS011;10891;49.350;19.386;2023-08-31T09:13:00;3.63;;;2.50;;
21458;SDS011;10891;49.350;19.386;2023-08-31T09:15:35;9.82;;;2.47;;
21458;SDS011;10891;49.350;19.386;2023-08-31T09:18:03;5.07;;;2.97;;
21458;SDS011;10891;49.350;19.386;2023-08-31T09:20:30;3.33;;;2.70;;
21458;SDS011;10891;49.350;19.386;2023-08-31T09:22:59;2.30;;;1.90;;
21458;SDS011;10891;49.350;19.386;2023-08-31T09:25:26;3.15;;;2.00;;
21458;SDS011;10891;49.350;19.386;2023-08-31T09:27:55;3.47;;;2.28;;
21458;SDS011;10891;49.350;19.386;2023-08-31T09:30:23;2.35;;;2.03;;
21458;SDS011;10891;49.350;19.386;2023-08-31T09:32:53;2.05;;;1.80;;
21458;SDS011;10891;49.350;19.386;2023-08-31T09:35:20;3.13;;;2.55;;
21458;SDS011;10891;49.350;19.386;2023-08-31T09:37:54;3.65;;;2.60;;
21458;SDS011;10891;49.350;19.386;2023-08-31T09:40:22;3.85;;;2.28;;
21458;SDS011;10891;49.350;19.386;2023-08-31T09:42:49;7.88;;;2.25;;
21458;SDS011;10891;49.350;19.386;2023-08-31T09:45:18;2.42;;;2.00;;
21458;SDS011;10891;49.350;19.386;2023-08-31T09:47:51;2.97;;;1.92;;
21458;SDS011;10891;49.350;19.386;2023-08-31T09:50:19;3.63;;;1.77;;
21458;SDS011;10891;49.350;19.386;2023-08-31T09:52:46;5.63;;;1.75;;
21458;SDS011;10891;49.350;19.386;2023-08-31T09:55:13;5.18;;;2.00;;
21458;SDS011;10891;49.350;19.386;2023-08-31T09:57:41;4.90;;;2.00;;
21458;SDS011;10891;49.350;19.386;2023-08-31T10:00:10;4.05;;;1.65;;
21458;SDS011;10891;49.350;19.386;2023-08-31T10:02:42;3.17;;;1.73;;
21458;SDS011;10891;49.350;19.386;2023-08-31T10:05:09;1.95;;;1.52;;
21458;SDS011;10891;49.350;19.386;2023-08-31T10:07:37;3.05;;;1.58;;
21458;SDS011;10891;49.350;19.386;2023-08-31T10:10:05;4.50;;;2.00;;
21458;SDS011;10891;49.350;19.386;2023-08-31T10:12:33;3.72;;;1.92;;
21458;SDS011;10891;49.350;19.386;2023-08-31T10:15:02;4.82;;;2.83;;
21458;SDS011;10891;49.350;19.386;2023-08-31T10:17:30;4.85;;;2.38;;
21458;SDS011;10891;49.350;19.386;2023-08-31T10:19:59;2.85;;;2.08;;
21458;SDS011;10891;49.350;19.386;2023-08-31T10:22:28;3.60;;;2.38;;
21458;SDS011;10891;49.350;19.386;2023-08-31T10:24:58;6.78;;;3.55;;
21458;SDS011;10891;49.350;19.386;2023-08-31T10:27:26;4.35;;;2.47;;
21458;SDS011;10891;49.350;19.386;2023-08-31T10:29:54;6.00;;;2.45;;
21458;SDS011;10891;49.350;19.386;2023-08-31T10:32:21;11.75;;;5.57;;
21458;SDS011;10891;49.350;19.386;2023-08-31T10:48:08;12.40;;;4.65;;
21458;SDS011;10891;49.350;19.386;2023-08-31T10:50:38;3.42;;;2.03;;
21458;SDS011;10891;49.350;19.386;2023-08-31T10:53:08;3.63;;;1.88;;
21458;SDS011;10891;49.350;19.386;2023-08-31T10:55:49;5.13;;;2.15;;
21458;SDS011;10891;49.350;19.386;2023-08-31T10:58:16;3.40;;;2.10;;
21458;SDS011;10891;49.350;19.386;2023-08-31T11:00:47;2.25;;;1.88;;
21458;SDS011;10891;49.350;19.386;2023-08-31T11:03:15;2.75;;;2.03;;
21458;SDS011;10891;49.350;19.386;2023-08-31T11:05:50;4.32;;;2.22;;
21458;SDS011;10891;49.350;19.386;2023-08-31T11:08:20;2.88;;;1.92;;
21458;SDS011;10891;49.350;19.386;2023-08-31T11:10:47;2.70;;;1.92;;
21458;SDS011;10891;49.350;19.386;2023-08-31T11:13:15;8.30;;;2.00;;
21458;SDS011;10891;49.350;19.386;2023-08-31T11:15:45;4.35;;;2.05;;
21458;SDS011;10891;49.350;19.386;2023-08-31T11:18:12;3.03;;;1.90;;
21458;SDS011;10891;49.350;19.386;2023-08-31T11:20:44;3.78;;;2.08;;
21458;SDS011;10891;49.350;19.386;2023-08-31T11:23:11;5.13;;;1.88;;
21458;SDS011;10891;49.350;19.386;2023-08-31T11:25:38;4.60;;;2.22;;
21458;SDS011;10891;49.350;19.386;2023-08-31T11:28:06;6.70;;;2.00;;
21458;SDS011;10891;49.350;19.386;2023-08-31T11:30:33;3.70;;;1.85;;
21458;SDS011;10891;49.350;19.386;2023-08-31T11:33:04;3.38;;;1.88;;
21458;SDS011;10891;49.350;19.386;2023-08-31T11:35:32;6.80;;;1.88;;
21458;SDS011;10891;49.350;19.386;2023-08-31T11:38:01;3.25;;;2.08;;
21458;SDS011;10891;49.350;19.386;2023-08-31T11:40:29;2.00;;;1.45;;
21458;SDS011;10891;49.350;19.386;2023-08-31T11:42:56;2.55;;;2.00;;
21458;SDS011;10891;49.350;19.386;2023-08-31T11:45:25;3.15;;;1.73;;
21458;SDS011;10891;49.350;19.386;2023-08-31T11:47:53;1.83;;;1.60;;
21458;SDS011;10891;49.350;19.386;2023-08-31T11:50:21;3.38;;;1.90;;
21458;SDS011;10891;49.350;19.386;2023-08-31T11:52:48;2.08;;;1.77;;
21458;SDS011;10891;49.350;19.386;2023-08-31T11:55:19;3.65;;;1.80;;
21458;SDS011;10891;49.350;19.386;2023-08-31T11:57:48;2.42;;;1.70;;
21458;SDS011;10891;49.350;19.386;2023-08-31T12:00:16;2.00;;;1.60;;
21458;SDS011;10891;49.350;19.386;2023-08-31T12:02:44;5.68;;;1.63;;
21458;SDS011;10891;49.350;19.386;2023-08-31T12:05:14;2.05;;;1.60;;
21458;SDS011;10891;49.350;19.386;2023-08-31T12:07:41;3.33;;;1.88;;
21458;SDS011;10891;49.350;19.386;2023-08-31T12:10:09;1.98;;;1.70;;
21458;SDS011;10891;49.350;19.386;2023-08-31T12:12:38;3.30;;;1.77;;
21458;SDS011;10891;49.350;19.386;2023-08-31T12:15:05;5.00;;;1.90;;
21458;SDS011;10891;49.350;19.386;2023-08-31T12:17:36;3.30;;;1.75;;
21458;SDS011;10891;49.350;19.386;2023-08-31T12:20:04;100.95;;;8.20;;
21458;SDS011;10891;49.350;19.386;2023-08-31T12:22:32;6.95;;;2.15;;
21458;SDS011;10891;49.350;19.386;2023-08-31T12:25:00;6.68;;;1.77;;
21458;SDS011;10891;49.350;19.386;2023-08-31T12:27:28;18.95;;;2.65;;
21458;SDS011;10891;49.350;19.386;2023-08-31T12:29:57;2.05;;;1.58;;
21458;SDS011;10891;49.350;19.386;2023-08-31T12:32:24;3.83;;;1.75;;
21458;SDS011;10891;49.350;19.386;2023-08-31T12:34:51;2.67;;;1.70;;
21458;SDS011;10891;49.350;19.386;2023-08-31T12:37:19;4.88;;;1.83;;
21458;SDS011;10891;49.350;19.386;2023-08-31T12:39:46;2.30;;;1.63;;
21458;SDS011;10891;49.350;19.386;2023-08-31T12:42:13;2.95;;;1.92;;
21458;SDS011;10891;49.350;19.386;2023-08-31T12:44:40;3.08;;;1.80;;
21458;SDS011;10891;49.350;19.386;2023-08-31T12:47:09;4.32;;;1.60;;
21458;SDS011;10891;49.350;19.386;2023-08-31T12:49:36;1.92;;;1.60;;
21458;SDS011;10891;49.350;19.386;2023-08-31T12:52:04;1.77;;;1.50;;
21458;SDS011;10891;49.350;19.386;2023-08-31T12:54:31;4.78;;;1.60;;
21458;SDS011;10891;49.350;19.386;2023-08-31T12:57:01;3.97;;;1.75;;
21458;SDS011;10891;49.350;19.386;2023-08-31T12:59:30;2.88;;;2.33;;
21458;SDS011;10891;49.350;19.386;2023-08-31T13:01:57;3.30;;;2.00;;
21458;SDS011;10891;49.350;19.386;2023-08-31T13:04:26;2.95;;;1.45;;
21458;SDS011;10891;49.350;19.386;2023-08-31T13:06:54;2.65;;;1.88;;
21458;SDS011;10891;49.350;19.386;2023-08-31T13:09:21;3.40;;;1.60;;
21458;SDS011;10891;49.350;19.386;2023-08-31T13:11:49;3.67;;;1.95;;
21458;SDS011;10891;49.350;19.386;2023-08-31T13:14:17;2.45;;;1.70;;
21458;SDS011;10891;49.350;19.386;2023-08-31T13:16:45;2.97;;;1.60;;
21458;SDS011;10891;49.350;19.386;2023-08-31T13:19:12;2.60;;;2.08;;
21458;SDS011;10891;49.350;19.386;2023-08-31T13:21:40;3.65;;;1.60;;
21458;SDS011;10891;49.350;19.386;2023-08-31T13:24:08;8.18;;;2.40;;
21458;SDS011;10891;49.350;19.386;2023-08-31T13:26:36;2.05;;;1.70;;
21458;SDS011;10891;49.350;19.386;2023-08-31T13:29:03;8.75;;;2.22;;
21458;SDS011;10891;49.350;19.386;2023-08-31T13:31:30;4.65;;;2.00;;
21458;SDS011;10891;49.350;19.386;2023-08-31T13:33:58;4.25;;;2.13;;
21458;SDS011;10891;49.350;19.386;2023-08-31T13:36:27;2.25;;;1.83;;
21458;SDS011;10891;49.350;19.386;2023-08-31T13:38:55;1.58;;;1.45;;
21458;SDS011;10891;49.350;19.386;2023-08-31T13:41:22;3.22;;;2.35;;
21458;SDS011;10891;49.350;19.386;2023-08-31T13:43:49;2.13;;;1.75;;
21458;SDS011;10891;49.350;19.386;2023-08-31T13:46:17;4.82;;;2.10;;
21458;SDS011;10891;49.350;19.386;2023-08-31T13:48:44;4.18;;;2.47;;
21458;SDS011;10891;49.350;19.386;2023-08-31T13:51:13;4.10;;;1.60;;
21458;SDS011;10891;49.350;19.386;2023-08-31T13:53:40;2.40;;;1.60;;
21458;SDS011;10891;49.350;19.386;2023-08-31T13:56:09;2.53;;;1.80;;
21458;SDS011;10891;49.350;19.386;2023-08-31T13:58:36;5.30;;;2.00;;
21458;SDS011;10891;49.350;19.386;2023-08-31T14:01:03;2.22;;;2.00;;
21458;SDS011;10891;49.350;19.386;2023-08-31T14:03:30;3.03;;;1.95;;
21458;SDS011;10891;49.350;19.386;2023-08-31T14:05:58;7.03;;;2.50;;
21458;SDS011;10891;49.350;19.386;2023-08-31T14:08:25;3.88;;;2.00;;
21458;SDS011;10891;49.350;19.386;2023-08-31T14:10:52;3.33;;;2.10;;
21458;SDS011;10891;49.350;19.386;2023-08-31T14:13:22;2.40;;;1.98;;
21458;SDS011;10891;49.350;19.386;2023-08-31T14:15:49;2.92;;;2.00;;
21458;SDS011;10891;49.350;19.386;2023-08-31T14:18:15;4.53;;;2.10;;
21458;SDS011;10891;49.350;19.386;2023-08-31T14:20:43;2.85;;;1.92;;
21458;SDS011;10891;49.350;19.386;2023-08-31T14:23:10;2.88;;;2.00;;
21458;SDS011;10891;49.350;19.386;2023-08-31T14:25:37;4.55;;;2.05;;
21458;SDS011;10891;49.350;19.386;2023-08-31T14:28:04;5.68;;;3.85;;
21458;SDS011;10891;49.350;19.386;2023-08-31T14:30:34;7.90;;;3.45;;
21458;SDS011;10891;49.350;19.386;2023-08-31T14:33:02;13.60;;;2.88;;
21458;SDS011;10891;49.350;19.386;2023-08-31T14:35:30;3.47;;;2.78;;
21458;SDS011;10891;49.350;19.386;2023-08-31T14:37:57;5.40;;;4.43;;
21458;SDS011;10891;49.350;19.386;2023-08-31T14:40:24;5.15;;;3.03;;
21458;SDS011;10891;49.350;19.386;2023-08-31T14:42:52;3.58;;;2.30;;
21458;SDS011;10891;49.350;19.386;2023-08-31T14:45:19;2.53;;;2.33;;
21458;SDS011;10891;49.350;19.386;2023-08-31T14:47:47;4.15;;;2.50;;
21458;SDS011;10891;49.350;19.386;2023-08-31T14:50:14;2.53;;;2.13;;
21458;SDS011;10891;49.350;19.386;2023-08-31T14:52:42;3.00;;;2.08;;
21458;SDS011;10891;49.350;19.386;2023-08-31T14:55:09;2.47;;;1.77;;